createdAt,value
2023-04-05T00:01:12.582Z,47.98
2023-04-05T00:03:42.977Z,47.59
2023-04-05T00:06:16.612Z,47.31
2023-04-05T00:08:49.814Z,47.84
2023-04-05T00:11:18.251Z,47.53
2023-04-05T00:13:46.275Z,47.90
2023-04-05T00:16:14.403Z,46.93
2023-04-05T00:18:46.243Z,47.73
2023-04-05T00:21:14.570Z,48.10
2023-04-05T00:23:45.082Z,47.81
2023-04-05T00:26:13.210Z,47.23
2023-04-05T00:28:45.668Z,47.43
2023-04-05T00:31:13.787Z,47.70
2023-04-05T00:33:43.414Z,47.85
2023-04-05T00:36:13.012Z,47.48
2023-04-05T00:38:42.996Z,48.65
2023-04-05T00:41:11.920Z,47.90
2023-04-05T00:43:40.983Z,47.59
2023-04-05T00:46:09.871Z,47.82
2023-04-05T00:48:40.562Z,48.29
2023-04-05T00:51:12.394Z,48.94
2023-04-05T00:53:43.025Z,48.79
2023-04-05T00:56:13.592Z,49.62
2023-04-05T00:58:42.454Z,48.94
2023-04-05T01:01:17.835Z,49.40
2023-04-05T01:03:52.280Z,50.52
2023-04-05T01:06:37.999Z,49.64
2023-04-05T01:09:18.907Z,49.66
2023-04-05T01:11:49.556Z,50.77
2023-04-05T01:14:17.649Z,50.44
2023-04-05T01:16:49.437Z,50.66
2023-04-05T01:19:17.585Z,49.85
2023-04-05T01:22:31.971Z,49.57
2023-04-05T01:25:44.829Z,50.44
2023-04-05T01:28:50.051Z,51.22
2023-04-05T01:31:27.839Z,50.69
2023-04-05T01:34:03.262Z,50.91
2023-04-05T01:36:40.532Z,51.12
2023-04-05T01:39:12.575Z,50.90
2023-04-05T01:41:41.182Z,51.67
2023-04-05T01:44:09.357Z,51.23
2023-04-05T01:46:38.918Z,52.01
2023-04-05T01:49:07.049Z,50.95
2023-04-05T01:51:35.711Z,51.47
2023-04-05T01:54:03.817Z,52.06
2023-04-05T01:56:31.857Z,51.77
2023-04-05T01:58:59.940Z,52.02
2023-04-05T02:01:28.172Z,51.54
2023-04-05T02:03:57.595Z,51.64
2023-04-05T02:06:27.630Z,51.22
2023-04-05T02:08:55.940Z,51.80
2023-04-05T02:11:24.084Z,51.20
2023-04-05T02:13:52.124Z,52.16
2023-04-05T02:16:20.270Z,51.49
2023-04-05T02:18:50.925Z,51.38
2023-04-05T02:21:21.781Z,51.79
2023-04-05T02:23:49.863Z,51.95
2023-04-05T02:26:19.102Z,51.15
2023-04-05T02:28:47.251Z,51.29
2023-04-05T02:31:15.757Z,51.15
2023-04-05T02:33:44.003Z,51.58
2023-04-05T02:36:14.333Z,52.01
2023-04-05T02:38:43.747Z,51.25
2023-04-05T02:41:12.663Z,51.21
2023-04-05T02:43:41.108Z,52.06
2023-04-05T02:46:09.203Z,51.84
2023-04-05T02:48:41.187Z,52.88
2023-04-05T02:51:10.588Z,52.67
2023-04-05T02:53:40.456Z,52.13
2023-04-05T02:56:14.330Z,52.62
2023-04-05T02:58:45.841Z,52.44
2023-04-05T03:01:14.536Z,52.71
2023-04-05T03:03:43.317Z,52.85
2023-04-05T03:06:11.794Z,51.98
2023-04-05T03:08:45.317Z,52.25
2023-04-05T03:11:16.962Z,52.03
2023-04-05T03:13:49.261Z,52.58
2023-04-05T03:16:30.074Z,52.70
2023-04-05T03:19:02.399Z,52.59
2023-04-05T03:21:30.701Z,52.33
2023-04-05T03:24:08.084Z,53.49
2023-04-05T03:26:44.228Z,52.52
2023-04-05T03:29:14.020Z,53.16
2023-04-05T03:31:42.218Z,52.32
2023-04-05T03:34:12.169Z,52.35
2023-04-05T03:36:46.008Z,52.70
2023-04-05T03:39:27.562Z,52.92
2023-04-05T03:41:58.064Z,53.00
2023-04-05T03:44:27.502Z,52.91
2023-04-05T03:46:55.823Z,53.08
2023-04-05T03:49:24.580Z,53.41
2023-04-05T03:51:52.820Z,52.82
2023-04-05T03:54:21.904Z,52.95
2023-04-05T03:56:52.770Z,53.22
2023-04-05T03:59:22.296Z,53.16
2023-04-05T04:01:50.766Z,53.90
2023-04-05T04:04:21.094Z,53.75
2023-04-05T04:06:49.885Z,53.28
2023-04-05T04:09:22.890Z,53.56
2023-04-05T04:11:51.268Z,53.19
2023-04-05T04:14:23.749Z,53.06
2023-04-05T04:17:03.833Z,53.25
2023-04-05T04:19:40.874Z,53.33
2023-04-05T04:22:33.371Z,53.50
2023-04-05T04:25:30.721Z,53.48
2023-04-05T04:28:06.647Z,53.60
2023-04-05T04:30:52.953Z,53.57
2023-04-05T04:33:35.528Z,53.67
2023-04-05T04:36:36.279Z,53.35
2023-04-05T04:39:39.706Z,53.78
2023-04-05T04:42:26.519Z,53.60
2023-04-05T04:45:15.881Z,54.04
2023-04-05T04:48:08.564Z,53.13
2023-04-05T04:50:57.330Z,53.92
2023-04-05T04:53:25.445Z,53.90
2023-04-05T04:55:55.097Z,53.95
2023-04-05T04:58:23.247Z,53.98
2023-04-05T05:01:01.288Z,53.94
2023-04-05T05:03:32.198Z,53.61
2023-04-05T05:06:00.181Z,53.94
2023-04-05T05:08:32.347Z,53.71
2023-04-05T05:11:01.119Z,53.56
2023-04-05T05:13:29.789Z,53.65
2023-04-05T05:18:53.260Z,53.93
2023-04-05T05:21:22.620Z,53.76
2023-04-05T05:23:55.256Z,53.71
2023-04-05T05:26:23.783Z,52.71
2023-04-05T05:28:53.204Z,53.14
2023-04-05T05:31:22.859Z,53.04
2023-04-05T05:33:52.482Z,53.64
2023-04-05T05:36:20.742Z,53.66
2023-04-05T05:38:49.094Z,53.98
2023-04-05T05:41:17.516Z,54.26
2023-04-05T05:43:45.974Z,53.92
2023-04-05T05:46:14.542Z,54.03
2023-04-05T05:48:43.160Z,54.28
2023-04-05T05:51:14.304Z,54.32
2023-04-05T05:53:42.881Z,54.43
2023-04-05T05:56:11.291Z,54.84
2023-04-05T05:58:41.001Z,54.34
2023-04-05T06:01:11.972Z,54.39
2023-04-05T06:03:40.478Z,54.44
2023-04-05T06:06:11.573Z,54.58
2023-04-05T06:08:42.791Z,54.42
2023-04-05T06:11:19.942Z,54.72
2023-04-05T06:13:48.286Z,54.46
2023-04-05T06:16:16.704Z,54.58
2023-04-05T06:18:45.999Z,54.26
2023-04-05T06:21:14.049Z,54.41
2023-04-05T06:23:44.067Z,54.51
2023-04-05T06:26:18.860Z,53.68
2023-04-05T06:28:48.048Z,53.97
2023-04-05T06:31:17.755Z,52.96
2023-04-05T06:33:46.213Z,53.71
2023-04-05T06:36:15.596Z,53.98
2023-04-05T06:38:45.044Z,53.26
2023-04-05T06:41:13.610Z,52.89
2023-04-05T06:43:42.406Z,53.78
2023-04-05T06:46:12.565Z,54.01
2023-04-05T06:48:41.433Z,52.77
2023-04-05T06:51:09.937Z,53.12
2023-04-05T06:53:37.996Z,52.56
2023-04-05T06:56:09.814Z,51.84
2023-04-05T06:58:38.742Z,51.13
2023-04-05T07:01:07.921Z,52.24
2023-04-05T07:03:37.308Z,50.79
2023-04-05T07:06:06.248Z,51.14
2023-04-05T07:08:34.778Z,51.06
2023-04-05T07:11:03.288Z,51.99
2023-04-05T07:13:33.821Z,50.94
2023-04-05T07:16:03.676Z,52.02
2023-04-05T07:18:32.499Z,51.27
2023-04-05T07:21:03.822Z,51.79
2023-04-05T07:23:33.181Z,52.10
2023-04-05T07:26:04.811Z,51.38
2023-04-05T07:28:36.510Z,52.09
2023-04-05T07:31:06.926Z,52.19
2023-04-05T07:33:38.430Z,51.97
2023-04-05T07:36:08.026Z,50.29
2023-04-05T07:38:39.323Z,49.14
2023-04-05T07:41:09.024Z,48.01
2023-04-05T07:43:40.051Z,48.10
2023-04-05T07:46:09.538Z,47.83
2023-04-05T07:48:37.654Z,47.51
2023-04-05T07:51:08.518Z,48.37
2023-04-05T07:53:37.650Z,47.84
2023-04-05T07:56:06.840Z,48.07
2023-04-05T07:58:35.740Z,48.72
2023-04-05T08:01:06.853Z,47.60
2023-04-05T08:03:36.176Z,46.58
2023-04-05T08:06:13.144Z,46.80
2023-04-05T08:08:41.567Z,47.82
2023-04-05T08:11:10.461Z,47.88
2023-04-05T08:13:40.587Z,46.75
2023-04-05T08:16:11.885Z,46.69
2023-04-05T08:18:41.170Z,46.20
2023-04-05T08:21:09.364Z,46.85
2023-04-05T08:23:37.484Z,45.58
2023-04-05T08:26:07.648Z,47.11
2023-04-05T08:28:36.519Z,47.43
2023-04-05T08:31:05.598Z,45.52
2023-04-05T08:33:35.261Z,44.78
2023-04-05T08:36:07.479Z,43.82
2023-04-05T08:38:35.880Z,44.44
2023-04-05T08:41:19.085Z,42.65
2023-04-05T08:43:59.060Z,42.51
2023-04-05T08:46:31.134Z,40.01
2023-04-05T08:49:05.490Z,40.09
2023-04-05T08:51:34.092Z,40.03
2023-04-05T08:54:02.950Z,40.65
2023-04-05T08:56:35.077Z,39.76
2023-04-05T08:59:07.192Z,39.54
2023-04-05T09:01:40.629Z,39.69
2023-04-05T09:04:16.732Z,38.91
2023-04-05T09:06:46.317Z,38.26
2023-04-05T09:09:16.320Z,38.50
2023-04-05T09:11:45.682Z,38.70
2023-04-05T09:14:15.369Z,38.20
2023-04-05T09:16:44.120Z,38.05
2023-04-05T09:19:13.647Z,37.41
2023-04-05T09:22:02.557Z,37.62
2023-04-05T09:24:36.887Z,36.51
2023-04-05T09:27:07.201Z,35.79
2023-04-05T09:29:35.776Z,35.76
2023-04-05T09:32:08.891Z,36.52
2023-04-05T09:34:39.613Z,35.83
2023-04-05T09:37:16.244Z,35.92
2023-04-05T09:39:45.652Z,35.71
2023-04-05T09:42:16.469Z,36.61
2023-04-05T09:44:52.371Z,34.64
2023-04-05T09:47:22.158Z,35.57
2023-04-05T09:49:55.851Z,35.45
2023-04-05T09:52:26.841Z,34.92
2023-04-05T09:54:56.922Z,35.48
2023-04-05T09:57:27.420Z,36.58
2023-04-05T09:59:57.304Z,35.11
2023-04-05T10:02:26.485Z,36.36
2023-04-05T10:04:56.202Z,36.93
2023-04-05T10:07:24.855Z,35.21
2023-04-05T10:09:53.624Z,34.04
2023-04-05T10:12:27.684Z,34.38
2023-04-05T10:14:56.864Z,34.05
2023-04-05T10:17:29.536Z,34.16
2023-04-05T10:20:15.163Z,34.72
2023-04-05T10:23:07.938Z,34.53
2023-04-05T10:25:55.605Z,34.49
2023-04-05T10:28:32.779Z,34.75
2023-04-05T10:31:13.261Z,34.80
2023-04-05T10:33:48.029Z,36.05
2023-04-05T10:36:37.949Z,35.66
2023-04-05T10:39:13.515Z,35.65
2023-04-05T10:41:48.358Z,36.09
2023-04-05T10:44:26.176Z,35.96
2023-04-05T10:46:56.935Z,35.59
2023-04-05T10:49:37.241Z,34.94
2023-04-05T10:52:07.988Z,34.20
2023-04-05T10:54:38.495Z,34.82
2023-04-05T10:57:10.818Z,33.79
2023-04-05T10:59:44.930Z,34.17
2023-04-05T11:02:14.743Z,34.22
2023-04-05T11:04:43.740Z,33.43
2023-04-05T11:07:16.493Z,34.12
2023-04-05T11:09:57.164Z,33.99
2023-04-05T11:13:06.768Z,33.27
2023-04-05T11:15:36.763Z,35.57
2023-04-05T11:18:13.212Z,35.62
2023-04-05T11:20:52.609Z,35.28
2023-04-05T11:23:25.791Z,33.98
2023-04-05T11:26:00.117Z,34.09
2023-04-05T11:28:37.598Z,34.07
2023-04-05T11:31:15.469Z,32.36
2023-04-05T11:34:00.171Z,34.30
2023-04-05T11:36:38.271Z,32.54
2023-04-05T11:39:27.312Z,32.88
2023-04-05T11:42:00.290Z,32.69
2023-04-05T11:44:29.233Z,33.04
2023-04-05T11:47:00.019Z,34.30
2023-04-05T11:49:29.385Z,34.27
2023-04-05T11:54:53.969Z,33.29
2023-04-05T11:57:25.015Z,33.01
2023-04-05T11:59:55.100Z,34.09
2023-04-05T12:02:24.011Z,34.94
2023-04-05T12:04:57.667Z,33.23
2023-04-05T12:07:30.482Z,33.45
2023-04-05T12:10:03.294Z,34.40
2023-04-05T12:12:36.376Z,33.38
2023-04-05T12:15:06.455Z,33.09
2023-04-05T12:17:47.177Z,32.30
2023-04-05T12:20:19.299Z,33.96
2023-04-05T12:22:49.949Z,34.07
2023-04-05T12:25:23.554Z,32.14
2023-04-05T12:27:51.783Z,32.46
2023-04-05T12:30:22.440Z,32.67
2023-04-05T12:32:53.740Z,32.38
2023-04-05T12:35:24.383Z,34.08
2023-04-05T12:37:52.946Z,32.77
2023-04-05T12:40:24.804Z,32.11
2023-04-05T12:42:53.180Z,31.77
2023-04-05T12:45:25.018Z,32.60
2023-04-05T12:47:57.277Z,32.76
2023-04-05T12:50:29.376Z,32.81
2023-04-05T12:53:00.051Z,33.00
2023-04-05T12:55:31.354Z,33.07
2023-04-05T12:58:01.872Z,33.09
2023-04-05T13:00:31.530Z,32.67
2023-04-05T13:03:01.020Z,32.41
2023-04-05T13:05:31.670Z,32.20
2023-04-05T13:08:00.525Z,31.77
2023-04-05T13:10:30.380Z,32.25
2023-04-05T13:12:58.449Z,31.51
2023-04-05T13:15:27.170Z,31.88
2023-04-05T13:17:55.412Z,31.72
2023-04-05T13:20:23.788Z,32.33
2023-04-05T13:22:51.902Z,32.68
2023-04-05T13:25:20.132Z,32.35
2023-04-05T13:27:50.125Z,32.29
2023-04-05T13:30:18.882Z,31.38
2023-04-05T13:32:48.429Z,32.51
2023-04-05T13:35:16.932Z,32.28
2023-04-05T13:37:45.510Z,32.44
2023-04-05T13:40:13.875Z,32.33
2023-04-05T13:42:42.503Z,31.93
2023-04-05T13:45:13.424Z,32.13
2023-04-05T13:47:42.055Z,31.70
2023-04-05T13:50:11.031Z,32.91
2023-04-05T13:52:39.225Z,32.63
2023-04-05T13:55:08.729Z,32.08
2023-04-05T13:57:37.267Z,32.46
2023-04-05T14:00:07.345Z,32.25
2023-04-05T14:02:43.869Z,32.21
2023-04-05T14:05:37.424Z,31.79
2023-04-05T14:08:05.748Z,31.58
2023-04-05T14:10:33.997Z,31.60
2023-04-05T14:13:02.781Z,30.89
2023-04-05T14:15:30.972Z,31.06
2023-04-05T14:18:01.589Z,32.32
2023-04-05T14:20:31.777Z,32.02
2023-04-05T14:23:01.862Z,31.84
2023-04-05T14:25:30.582Z,32.36
2023-04-05T14:27:58.656Z,31.82
2023-04-05T14:30:27.186Z,31.82
2023-04-05T14:32:55.275Z,31.73
2023-04-05T14:35:25.064Z,32.94
2023-04-05T14:37:54.431Z,31.89
2023-04-05T14:40:22.578Z,33.22
2023-04-05T14:42:50.885Z,33.33
2023-04-05T14:45:19.783Z,32.49
2023-04-05T14:47:48.069Z,32.19
2023-04-05T14:50:16.756Z,32.86
2023-04-05T14:52:46.417Z,32.02
2023-04-05T14:55:16.404Z,32.14
2023-04-05T14:57:44.747Z,31.73
2023-04-05T15:00:14.703Z,31.94
2023-04-05T15:02:43.290Z,31.80
2023-04-05T15:05:11.889Z,31.76
2023-04-05T15:07:40.241Z,32.22
2023-04-05T15:10:11.350Z,32.78
2023-04-05T15:12:40.053Z,32.71
2023-04-05T15:15:09.504Z,32.19
2023-04-05T15:17:39.280Z,31.35
2023-04-05T15:20:09.593Z,32.22
2023-04-05T15:22:40.753Z,31.51
2023-04-05T15:25:12.048Z,31.75
2023-04-05T15:27:40.740Z,31.60
2023-04-05T15:30:12.978Z,31.90
2023-04-05T15:32:41.355Z,31.31
2023-04-05T15:35:10.492Z,31.06
2023-04-05T15:37:39.213Z,31.17
2023-04-05T15:40:10.773Z,31.66
2023-04-05T15:42:40.740Z,31.58
2023-04-05T15:45:10.787Z,31.52
2023-04-05T15:47:40.260Z,32.28
2023-04-05T15:50:09.287Z,32.56
2023-04-05T15:52:37.571Z,33.05
2023-04-05T15:55:07.446Z,32.23
2023-04-05T15:57:37.685Z,31.33
2023-04-05T16:00:08.560Z,31.71
2023-04-05T16:02:38.375Z,32.21
2023-04-05T16:05:07.378Z,32.46
2023-04-05T16:07:36.853Z,32.18
2023-04-05T16:10:06.927Z,31.61
2023-04-05T16:12:37.013Z,30.75
2023-04-05T16:15:06.718Z,31.19
2023-04-05T16:17:35.733Z,31.90
2023-04-05T16:20:05.271Z,31.07
2023-04-05T16:22:33.629Z,30.86
2023-04-05T16:25:02.211Z,31.67
2023-04-05T16:27:30.446Z,32.19
2023-04-05T16:30:03.267Z,31.69
2023-04-05T16:32:31.397Z,32.08
2023-04-05T16:34:59.680Z,32.25
2023-04-05T16:37:27.722Z,31.67
2023-04-05T16:39:55.935Z,32.00
2023-04-05T16:42:23.987Z,31.68
2023-04-05T16:44:52.632Z,32.46
2023-04-05T16:47:22.036Z,32.47
2023-04-05T16:49:56.523Z,33.34
2023-04-05T16:52:24.766Z,33.53
2023-04-05T16:54:52.828Z,33.30
2023-04-05T16:57:21.108Z,33.97
2023-04-05T16:59:49.123Z,34.24
2023-04-05T17:02:17.966Z,33.72
2023-04-05T17:04:47.968Z,34.05
2023-04-05T17:07:15.977Z,33.96
2023-04-05T17:09:44.034Z,34.28
2023-04-05T17:12:12.503Z,34.31
2023-04-05T17:14:40.640Z,33.97
2023-04-05T17:17:09.207Z,34.46
2023-04-05T17:19:37.274Z,34.54
2023-04-05T17:22:06.829Z,34.37
2023-04-05T17:24:35.963Z,34.54
2023-04-05T17:27:04.767Z,34.58
2023-04-05T17:29:32.949Z,34.12
2023-04-05T17:32:01.220Z,34.81
2023-04-05T17:34:29.288Z,35.05
2023-04-05T17:36:57.373Z,34.74
2023-04-05T17:39:26.841Z,34.52
2023-04-05T17:41:56.598Z,34.33
2023-04-05T17:44:24.774Z,34.71
2023-04-05T17:47:05.390Z,35.43
2023-04-05T17:49:37.475Z,34.76
2023-04-05T17:52:08.307Z,34.50
2023-04-05T17:54:39.625Z,34.64
2023-04-05T17:57:14.849Z,34.67
2023-04-05T17:59:43.160Z,35.31
2023-04-05T18:02:11.569Z,35.38
2023-04-05T18:04:40.112Z,36.01
2023-04-05T18:07:08.843Z,36.39
2023-04-05T18:09:41.782Z,36.29
2023-04-05T18:12:10.174Z,36.78
2023-04-05T18:14:38.423Z,36.43
2023-04-05T18:17:07.064Z,36.78
2023-04-05T18:19:35.753Z,37.03
2023-04-05T18:22:04.218Z,37.45
2023-04-05T18:24:32.558Z,37.21
2023-04-05T18:27:02.141Z,37.38
2023-04-05T18:29:30.807Z,37.50
2023-04-05T18:31:59.108Z,37.39
2023-04-05T18:34:27.400Z,38.15
2023-04-05T18:36:56.219Z,37.95
2023-04-05T18:39:27.376Z,38.22
2023-04-05T18:41:55.876Z,38.59
2023-04-05T18:44:26.275Z,38.72
2023-04-05T18:46:54.406Z,38.93
2023-04-05T18:49:22.603Z,38.79
2023-04-05T18:51:50.823Z,39.70
2023-04-05T18:54:19.213Z,40.47
2023-04-05T18:56:47.279Z,40.88
2023-04-05T18:59:16.326Z,41.29
2023-04-05T19:01:46.697Z,41.75
2023-04-05T19:04:16.281Z,42.14
2023-04-05T19:06:44.418Z,42.57
2023-04-05T19:09:12.767Z,42.65
2023-04-05T19:11:41.287Z,42.89
2023-04-05T19:14:09.428Z,43.36
2023-04-05T19:16:37.589Z,43.28
2023-04-05T19:19:07.406Z,43.35
2023-04-05T19:21:35.862Z,43.65
2023-04-05T19:24:04.218Z,43.54
2023-04-05T19:26:33.757Z,43.37
2023-04-05T19:29:01.848Z,43.21
2023-04-05T19:31:30.900Z,43.36
2023-04-05T19:33:59.794Z,43.60
2023-04-05T19:36:29.664Z,43.77
2023-04-05T19:38:57.729Z,43.82
2023-04-05T19:41:29.751Z,43.77
2023-04-05T19:43:57.920Z,43.56
2023-04-05T19:46:28.781Z,44.48
2023-04-05T19:48:58.907Z,44.12
2023-04-05T19:51:29.673Z,43.92
2023-04-05T19:53:59.980Z,44.28
2023-04-05T19:56:32.311Z,44.90
2023-04-05T19:59:02.963Z,44.31
2023-04-05T20:01:35.385Z,43.86
2023-04-05T20:04:12.493Z,44.36
2023-04-05T20:06:43.361Z,43.88
2023-04-05T20:09:13.457Z,44.25
2023-04-05T20:11:42.088Z,44.74
2023-04-05T20:14:10.361Z,44.28
2023-04-05T20:16:38.995Z,44.67
2023-04-05T20:19:09.844Z,44.37
2023-04-05T20:21:38.911Z,44.51
2023-04-05T20:24:13.239Z,44.11
2023-04-05T20:26:41.478Z,44.21
2023-04-05T20:29:11.857Z,44.50
2023-04-05T20:31:40.263Z,45.00
2023-04-05T20:34:12.054Z,44.88
2023-04-05T20:36:48.432Z,44.48
2023-04-05T20:39:17.974Z,45.66
2023-04-05T20:41:47.843Z,45.20
2023-04-05T20:44:16.802Z,44.13
2023-04-05T20:46:44.995Z,44.75
2023-04-05T20:49:13.212Z,44.58
2023-04-05T20:51:42.683Z,45.00
2023-04-05T20:54:11.410Z,44.50
2023-04-05T20:56:40.941Z,44.76
2023-04-05T20:59:09.336Z,45.62
2023-04-05T21:01:38.265Z,45.07
2023-04-05T21:04:07.214Z,45.05
2023-04-05T21:06:36.670Z,44.97
2023-04-05T21:09:05.081Z,44.62
2023-04-05T21:11:33.294Z,45.29
2023-04-05T21:14:02.700Z,45.62
2023-04-05T21:16:31.445Z,45.17
2023-04-05T21:18:59.553Z,45.58
2023-04-05T21:21:27.843Z,46.30
2023-04-05T21:23:55.968Z,46.49
2023-04-05T21:26:24.068Z,45.83
2023-04-05T21:28:52.101Z,45.99
2023-04-05T21:31:27.684Z,46.24
2023-04-05T21:33:55.783Z,46.19
2023-04-05T21:36:23.890Z,45.63
2023-04-05T21:38:52.077Z,45.36
2023-04-05T21:41:20.099Z,46.69
2023-04-05T21:43:48.176Z,47.12
2023-04-05T21:46:16.271Z,46.80
2023-04-05T21:48:45.808Z,46.84
2023-04-05T21:51:13.846Z,46.98
2023-04-05T21:53:41.895Z,46.44
2023-04-05T21:56:09.949Z,47.56
2023-04-05T21:58:37.951Z,47.34
2023-04-05T22:01:08.068Z,48.05
2023-04-05T22:03:36.215Z,47.24
2023-04-05T22:06:05.991Z,47.73
2023-04-05T22:08:35.092Z,48.21
2023-04-05T22:11:03.340Z,47.10
2023-04-05T22:13:31.469Z,48.14
2023-04-05T22:15:59.643Z,48.09
2023-04-05T22:18:28.950Z,46.89
2023-04-05T22:20:57.069Z,47.17
2023-04-05T22:23:26.513Z,48.11
2023-04-05T22:25:54.639Z,47.36
2023-04-05T22:28:22.917Z,46.92
2023-04-05T22:30:51.193Z,48.11
2023-04-05T22:33:19.241Z,47.59
2023-04-05T22:35:47.322Z,47.70
2023-04-05T22:38:15.418Z,48.27
2023-04-05T22:40:46.323Z,48.15
2023-04-05T22:43:14.689Z,48.74
2023-04-05T22:45:42.759Z,48.20
2023-04-05T22:48:10.883Z,48.12
2023-04-05T22:50:39.024Z,48.76
2023-04-05T22:53:08.350Z,48.40
2023-04-05T22:55:37.409Z,48.25
2023-04-05T22:58:13.441Z,48.41
2023-04-05T23:00:41.607Z,48.50
2023-04-05T23:03:09.924Z,48.52
2023-04-05T23:05:38.505Z,48.79
2023-04-05T23:08:06.743Z,48.23
2023-04-05T23:10:34.838Z,48.68
2023-04-05T23:13:02.896Z,48.74
2023-04-05T23:15:32.413Z,48.46
2023-04-05T23:18:00.590Z,49.34
2023-04-05T23:20:28.643Z,48.63
2023-04-05T23:22:56.788Z,48.41
2023-04-05T23:25:24.929Z,48.19
2023-04-05T23:27:53.828Z,49.12
2023-04-05T23:30:21.937Z,48.99
2023-04-05T23:32:51.360Z,48.93
2023-04-05T23:35:19.512Z,49.82
2023-04-05T23:37:47.579Z,49.60
2023-04-05T23:40:16.140Z,49.20
2023-04-05T23:42:44.195Z,49.14
2023-04-05T23:45:12.636Z,49.93
2023-04-05T23:47:40.751Z,49.89
2023-04-05T23:50:11.515Z,50.55
2023-04-05T23:52:39.574Z,49.85
2023-04-05T23:55:08.840Z,50.64
2023-04-05T23:57:36.942Z,50.20
